ZRH weather

Z├╝rich Airport
Zurich, Canton of Zurich, Switzerland

Public forecast

Using degrees Celsius for public forecast. Weather courtesy of forecast.io.

METAR (pilot weather report)

Retrieved 2018/12/13 18:20 UTC (0 seconds ago):

LSZH 131820Z 05006KT 350V110 9999 -SN FEW025 BKN065 00/M04 Q1012 WS R28 R88/19//// NOSIG

TAF (pilot weather forecast)

Retrieved 2018/12/13 18:37 UTC (0 seconds ago):

TAF LSZH 131725Z 1318/1424 03006KT 9999 FEW030 BKN060 TX01/1414Z TNM03/1405Z TEMPO 1318/1319 -SN BECMG 1320/1322 VRB03KT PROB40 TEMPO 1400/1407 BKN014 TEMPO 1410/1417 05007KT